Time;durP1;ratioP1;P1;durP2;ratioP2;P2;SDS_P1;SDS_P2;PMS_P1;PMS_P2;Temp;Humidity;BMP_temperature;BMP_pressure;BME280_temperature;BME280_humidity;BME280_pressure;Samples;Min_cycle;Max_cycle;Signal;HPM_P1;HPM_P2
2024/01/26 00:00:15;;;;;;;;;12.60;12.00;;;;;6.57;41.80;100058.13;4839783;29;8883;-80
2024/01/26 00:03:05;;;;;;;;;12.60;12.60;;;;;5.73;43.72;100051.56;4843726;29;8881;-80
2024/01/26 00:05:34;;;;;;;;;6.80;5.80;;;;;6.11;43.22;100052.66;4859428;29;8889;-78
2024/01/26 00:08:05;;;;;;;;;8.80;7.00;;;;;6.06;43.58;100055.25;4859029;29;8893;-77
2024/01/26 00:10:37;;;;;;;;;11.00;11.00;;;;;5.31;44.49;100062.53;4860506;29;8952;-78
2024/01/26 00:13:06;;;;;;;;;12.60;12.60;;;;;4.97;44.76;100062.19;4856312;29;8886;-78
2024/01/26 00:15:36;;;;;;;;;13.00;9.00;;;;;5.44;44.65;100063.53;4854023;29;8906;-78
2024/01/26 00:18:06;;;;;;;;;9.60;9.40;;;;;5.58;43.87;100063.63;4855189;29;8943;-77
2024/01/26 00:20:35;;;;;;;;;8.20;7.20;;;;;5.50;44.26;100064.44;4871473;29;8865;-79
2024/01/26 00:23:04;;;;;;;;;10.60;10.00;;;;;5.65;43.62;100070.66;4858290;29;9699;-77
2024/01/26 00:25:33;;;;;;;;;14.80;9.60;;;;;5.85;44.36;100069.06;4858629;29;8880;-80
2024/01/26 00:28:04;;;;;;;;;15.00;12.60;;;;;5.99;43.10;100068.28;4856196;29;8896;-80
2024/01/26 00:30:33;;;;;;;;;12.20;11.00;;;;;5.79;44.32;100075.94;4842618;29;8966;-78
2024/01/26 00:33:02;;;;;;;;;13.80;11.00;;;;;5.21;44.55;100076.28;4858883;29;8889;-78
2024/01/26 00:35:32;;;;;;;;;12.80;12.80;;;;;5.34;45.03;100081.69;4841300;29;8881;-77
2024/01/26 00:38:01;;;;;;;;;3.20;1.40;;;;;5.56;44.47;100079.25;4858983;29;8873;-77
2024/01/26 00:40:31;;;;;;;;;10.20;7.60;;;;;5.63;44.47;100075.84;4859176;29;8873;-78
2024/01/26 00:42:59;;;;;;;;;17.80;13.60;;;;;5.38;44.52;100077.38;4856615;29;8901;-78
2024/01/26 00:45:28;;;;;;;;;13.40;11.00;;;;;5.68;44.60;100081.97;4844309;29;9528;-78
2024/01/26 00:47:57;;;;;;;;;14.20;12.00;;;;;5.68;44.07;100076.75;4808102;29;8887;-78
2024/01/26 00:50:26;;;;;;;;;13.20;12.60;;;;;4.85;45.48;100075.06;4839594;29;8903;-78
2024/01/26 00:52:57;;;;;;;;;14.40;10.60;;;;;4.79;45.95;100080.22;4837704;29;8975;-79
2024/01/26 00:55:29;;;;;;;;;12.20;10.60;;;;;4.37;46.91;100077.09;4839693;29;9611;-79
2024/01/26 00:57:58;;;;;;;;;12.60;11.00;;;;;4.66;46.41;100071.38;4840047;29;8890;-79
2024/01/26 01:00:28;;;;;;;;;14.80;14.00;;;;;4.56;46.34;100071.31;4837954;29;8879;-77
2024/01/26 01:02:58;;;;;;;;;11.60;11.60;;;;;4.42;47.16;100071.97;4839768;29;8911;-77
2024/01/26 01:05:27;;;;;;;;;15.40;11.60;;;;;3.71;47.50;100074.44;4839677;29;8895;-76
2024/01/26 01:07:58;;;;;;;;;13.00;10.60;;;;;3.45;48.61;100079.25;4839795;29;9618;-78
2024/01/26 01:10:27;;;;;;;;;13.80;11.00;;;;;3.37;49.29;100081.69;4852676;29;8934;-77
2024/01/26 01:12:57;;;;;;;;;10.80;9.40;;;;;3.16;48.86;100081.28;4823062;29;8887;-78
2024/01/26 01:15:25;;;;;;;;;10.40;10.40;;;;;3.16;49.44;100081.28;4837712;29;8925;-77
2024/01/26 01:17:54;;;;;;;;;11.60;9.60;;;;;3.26;48.94;100087.53;4839934;29;8879;-78
2024/01/26 01:20:23;;;;;;;;;16.20;9.80;;;;;3.23;48.90;100083.16;4838463;29;8891;-77
2024/01/26 01:22:52;;;;;;;;;11.20;10.00;;;;;3.23;49.68;100077.09;4839443;29;8908;-78
2024/01/26 01:25:22;;;;;;;;;16.60;12.20;;;;;3.08;49.48;100085.50;4839438;29;9672;-78
2024/01/26 01:27:52;;;;;;;;;11.00;9.00;;;;;3.01;49.49;100089.69;4837678;29;8907;-77
2024/01/26 01:30:20;;;;;;;;;13.20;12.40;;;;;3.21;49.74;100087.47;4848669;29;8900;-77
2024/01/26 01:32:49;;;;;;;;;10.60;10.60;;;;;3.24;49.14;100082.31;4853251;29;8887;-78
2024/01/26 01:35:18;;;;;;;;;10.00;9.00;;;;;3.47;48.71;100087.94;4822297;29;8899;-77
2024/01/26 01:37:47;;;;;;;;;11.20;11.20;;;;;3.48;49.24;100088.81;4838910;29;8918;-78
2024/01/26 01:40:16;;;;;;;;;13.40;11.80;;;;;3.51;47.98;100091.47;4851852;29;9737;-77
2024/01/26 01:42:46;;;;;;;;;15.20;14.20;;;;;3.49;48.82;100094.03;4839074;29;8914;-78
2024/01/26 01:45:15;;;;;;;;;10.40;10.00;;;;;3.49;48.46;100101.84;4852953;29;8895;-78
2024/01/26 01:47:44;;;;;;;;;10.00;10.00;;;;;3.46;48.30;100100.91;4838121;29;8871;-78
2024/01/26 01:50:13;;;;;;;;;15.20;11.60;;;;;3.23;48.81;100108.28;4839537;29;9021;-78
2024/01/26 01:52:44;;;;;;;;;10.20;9.60;;;;;3.43;48.66;100103.44;4838893;29;8868;-77
2024/01/26 01:55:15;;;;;;;;;14.20;13.20;;;;;3.88;48.24;100100.69;4838779;29;8896;-77
2024/01/26 01:57:49;;;;;;;;;7.40;5.80;;;;;3.67;48.18;100108.19;4846058;29;8898;-77
2024/01/26 02:00:18;;;;;;;;;14.40;10.20;;;;;3.98;47.47;100097.41;4839265;29;8986;-78
2024/01/26 02:02:49;;;;;;;;;10.60;10.20;;;;;3.91;48.14;100105.97;4839777;29;8899;-77
2024/01/26 02:05:18;;;;;;;;;12.80;11.00;;;;;4.22;46.89;100103.81;4839147;29;8971;-79
2024/01/26 02:07:51;;;;;;;;;14.60;12.80;;;;;4.31;46.63;100098.72;4838942;29;8882;-78
2024/01/26 02:10:21;;;;;;;;;10.40;10.40;;;;;4.39;46.58;100105.75;4852938;29;8867;-78
2024/01/26 02:12:51;;;;;;;;;11.80;10.00;;;;;4.31;46.61;100103.94;4838711;29;8894;-78
2024/01/26 02:15:20;;;;;;;;;9.60;7.80;;;;;4.26;46.57;100104.72;4836377;29;8895;-78
2024/01/26 02:18:04;;;;;;;;;12.60;10.60;;;;;4.66;45.72;100103.53;4837329;29;8914;-79
2024/01/26 02:20:33;;;;;;;;;4.20;0.80;;;;;3.98;46.48;100113.00;4840039;29;8903;-78
2024/01/26 02:23:23;;;;;;;;;14.00;12.40;;;;;4.31;46.14;100113.47;4837862;29;8896;-78
2024/01/26 02:25:52;;;;;;;;;7.00;7.00;;;;;4.35;46.22;100116.13;4838299;29;9698;-77
2024/01/26 02:28:21;;;;;;;;;8.80;6.40;;;;;4.53;45.50;100104.22;4838654;29;8876;-79
2024/01/26 02:30:50;;;;;;;;;9.20;9.00;;;;;4.34;46.44;100119.59;4842540;29;8948;-77
2024/01/26 02:33:19;;;;;;;;;16.00;14.80;;;;;4.35;45.97;100110.91;4840548;29;9603;-78
2024/01/26 02:35:48;;;;;;;;;10.20;9.60;;;;;4.39;46.54;100121.38;4837975;29;8895;-78
2024/01/26 02:38:19;;;;;;;;;12.40;10.80;;;;;4.09;46.92;100121.00;4853250;29;8873;-78
2024/01/26 02:40:48;;;;;;;;;13.60;11.40;;;;;4.26;46.86;100126.44;4856600;29;8885;-78
2024/01/26 02:43:17;;;;;;;;;18.20;13.40;;;;;4.47;46.92;100124.94;4854830;29;8877;-78
2024/01/26 02:45:47;;;;;;;;;15.20;14.00;;;;;4.52;46.47;100123.28;4838492;29;8933;-80
2024/01/26 02:48:16;;;;;;;;;12.80;10.60;;;;;3.98;47.02;100133.81;4846203;29;8847;-77
2024/01/26 02:50:45;;;;;;;;;13.20;11.20;;;;;4.32;46.48;100123.03;4838057;29;8883;-80
2024/01/26 02:53:14;;;;;;;;;11.00;10.00;;;;;4.20;46.85;100128.06;4837785;29;8879;-79
2024/01/26 02:55:44;;;;;;;;;14.00;11.60;;;;;4.44;46.14;100128.41;4837640;29;8887;-78
2024/01/26 02:58:13;;;;;;;;;14.20;10.40;;;;;4.31;46.16;100123.88;4837636;29;8879;-78
2024/01/26 03:00:42;;;;;;;;;14.80;10.60;;;;;4.22;46.44;100135.03;4838186;29;9158;-79
2024/01/26 03:03:11;;;;;;;;;12.20;10.60;;;;;4.26;45.84;100130.75;4834520;29;8922;-80
2024/01/26 03:05:40;;;;;;;;;11.60;11.60;;;;;4.39;46.42;100129.19;4837744;29;9638;-78
2024/01/26 03:08:09;;;;;;;;;7.40;7.00;;;;;4.02;46.75;100129.56;4836906;29;8883;-79
2024/01/26 03:10:38;;;;;;;;;11.00;9.80;;;;;3.97;46.59;100126.00;4839026;29;8978;-78
2024/01/26 03:13:09;;;;;;;;;11.00;10.00;;;;;4.00;46.48;100118.25;4838078;29;8864;-77
2024/01/26 03:15:37;;;;;;;;;10.40;10.00;;;;;3.59;47.41;100123.66;4838285;29;8983;-78
2024/01/26 03:18:06;;;;;;;;;11.40;9.20;;;;;3.78;47.03;100117.03;4818533;29;8860;-80
2024/01/26 03:20:36;;;;;;;;;9.60;6.20;;;;;3.72;47.35;100130.81;4837658;29;8880;-79
2024/01/26 03:23:05;;;;;;;;;8.40;8.20;;;;;3.71;47.74;100125.56;4837347;29;8906;-80
2024/01/26 03:25:34;;;;;;;;;11.40;11.40;;;;;3.58;47.65;100128.00;4837920;29;9650;-77
2024/01/26 03:28:03;;;;;;;;;11.60;9.20;;;;;3.61;47.94;100136.69;4836871;29;8899;-78
2024/01/26 03:30:33;;;;;;;;;11.80;10.00;;;;;3.90;46.84;100134.53;4835509;29;9603;-77
2024/01/26 03:33:02;;;;;;;;;7.20;7.20;;;;;3.85;46.76;100137.09;4836638;29;8879;-77
2024/01/26 03:35:31;;;;;;;;;8.60;8.60;;;;;3.99;46.98;100137.28;4840716;29;8896;-78
2024/01/26 03:38:00;;;;;;;;;8.60;8.60;;;;;3.67;46.80;100144.56;4853717;29;8880;-78
2024/01/26 03:40:29;;;;;;;;;5.80;5.80;;;;;3.62;47.56;100146.22;4859819;29;8884;-77
2024/01/26 03:42:58;;;;;;;;;9.00;6.80;;;;;3.64;47.72;100147.13;4865206;29;8979;-78
2024/01/26 03:45:26;;;;;;;;;5.40;5.40;;;;;3.72;46.89;100138.59;4875114;29;8877;-78
2024/01/26 03:47:57;;;;;;;;;9.40;9.00;;;;;3.80;47.01;100136.13;4845145;29;8915;-79
2024/01/26 03:50:25;;;;;;;;;12.00;7.80;;;;;3.76;47.25;100144.72;4823929;29;8998;-78
2024/01/26 03:52:54;;;;;;;;;9.60;9.60;;;;;3.85;47.10;100141.41;4841489;29;8883;-78
2024/01/26 03:55:23;;;;;;;;;7.00;6.00;;;;;3.86;46.39;100141.41;4840939;29;9086;-78
2024/01/26 03:57:52;;;;;;;;;6.60;6.60;;;;;3.72;47.46;100140.34;4840686;29;8895;-79
2024/01/26 04:00:21;;;;;;;;;6.00;6.00;;;;;3.84;46.77;100140.53;4841275;29;8959;-79
2024/01/26 04:02:50;;;;;;;;;8.00;8.00;;;;;3.80;47.16;100133.53;4826868;29;8872;-77
2024/01/26 04:05:20;;;;;;;;;5.00;5.00;;;;;3.28;48.27;100132.59;4841421;29;8887;-78
2024/01/26 04:07:49;;;;;;;;;11.20;8.60;;;;;3.55;47.89;100133.13;4841949;29;8899;-78
2024/01/26 04:10:18;;;;;;;;;7.80;7.40;;;;;3.63;47.43;100135.84;4839554;29;8907;-78
2024/01/26 04:12:47;;;;;;;;;5.40;5.40;;;;;3.60;47.06;100141.03;4841679;29;8899;-78
2024/01/26 04:15:16;;;;;;;;;11.20;6.60;;;;;3.85;47.26;100144.88;4840844;29;8895;-78
2024/01/26 04:17:45;;;;;;;;;9.00;6.00;;;;;3.81;46.94;100148.28;4834631;29;8883;-78
2024/01/26 04:20:15;;;;;;;;;9.80;8.80;;;;;3.89;46.76;100151.03;4822568;29;8956;-78
2024/01/26 04:22:45;;;;;;;;;8.20;6.60;;;;;3.88;46.89;100146.66;4825151;29;8997;-78
2024/01/26 04:25:14;;;;;;;;;7.00;6.00;;;;;4.01;46.63;100151.19;4843429;29;8897;-78
2024/01/26 04:27:42;;;;;;;;;10.00;10.00;;;;;3.61;47.36;100147.09;4859318;29;8996;-77
2024/01/26 04:30:13;;;;;;;;;13.20;11.60;;;;;3.67;46.84;100139.38;4857747;29;8900;-79
2024/01/26 04:32:42;;;;;;;;;12.40;10.20;;;;;3.38;47.95;100143.19;4857815;29;9091;-78
2024/01/26 04:35:12;;;;;;;;;9.20;9.20;;;;;3.37;48.41;100141.47;4841036;29;10219;-78
2024/01/26 04:37:41;;;;;;;;;17.20;10.80;;;;;3.09;48.95;100149.56;4858628;29;8881;-78
2024/01/26 04:40:12;;;;;;;;;62.75;49.75;;;;;3.20;48.27;100148.94;4858493;29;8896;-78
2024/01/26 04:42:41;;;;;;;;;12.80;11.80;;;;;3.31;48.57;100138.72;4844474;29;8987;-80
2024/01/26 04:45:10;;;;;;;;;6.20;6.20;;;;;3.19;49.06;100148.91;4839901;29;8997;-79
2024/01/26 04:47:39;;;;;;;;;12.40;11.80;;;;;3.25;48.83;100150.75;4850729;29;8881;-78
2024/01/26 04:50:09;;;;;;;;;8.20;6.00;;;;;2.44;50.05;100155.16;4843151;29;8981;-79
2024/01/26 04:52:38;;;;;;;;;11.20;8.80;;;;;1.91;52.09;100150.50;4844022;29;8905;-79
2024/01/26 04:55:12;;;;;;;;;11.80;11.20;;;;;1.89;52.85;100149.59;4858422;29;8964;-79
2024/01/26 04:57:41;;;;;;;;;9.80;9.80;;;;;2.37;51.14;100144.66;4858835;29;8970;-80
2024/01/26 05:00:11;;;;;;;;;10.60;8.80;;;;;2.18;51.53;100147.66;4842979;29;8907;-79
2024/01/26 05:02:41;;;;;;;;;10.00;10.00;;;;;1.88;52.21;100153.00;4841725;29;8899;-78
2024/01/26 05:05:11;;;;;;;;;6.00;6.00;;;;;2.08;52.21;100153.50;4840957;29;8992;-78
2024/01/26 05:07:41;;;;;;;;;10.40;10.40;;;;;2.05;51.84;100150.81;4820414;29;9675;-79
2024/01/26 05:10:12;;;;;;;;;15.00;13.00;;;;;1.98;51.90;100161.03;4823021;29;8886;-78
2024/01/26 05:12:41;;;;;;;;;8.00;8.00;;;;;2.14;51.76;100162.28;4858289;29;8889;-77
2024/01/26 05:15:11;;;;;;;;;12.60;10.80;;;;;2.25;51.49;100165.13;4857948;29;9049;-79
2024/01/26 05:17:41;;;;;;;;;12.80;9.60;;;;;2.26;51.60;100164.28;4849027;29;8895;-78
2024/01/26 05:20:10;;;;;;;;;13.60;12.40;;;;;1.97;52.39;100163.59;4839829;29;8875;-78
2024/01/26 05:22:39;;;;;;;;;10.80;10.80;;;;;2.06;51.97;100166.41;4855565;29;8893;-78
2024/01/26 05:25:09;;;;;;;;;9.40;8.40;;;;;2.01;52.09;100165.41;4849784;29;8871;-78
2024/01/26 05:27:41;;;;;;;;;11.60;10.20;;;;;2.23;51.76;100167.69;4856954;29;8899;-79
2024/01/26 05:30:10;;;;;;;;;13.40;12.80;;;;;2.26;50.88;100166.00;4843701;29;8887;-81
2024/01/26 05:32:39;;;;;;;;;8.40;8.00;;;;;2.30;50.82;100166.13;4822338;29;8872;-78
2024/01/26 05:35:09;;;;;;;;;8.60;8.60;;;;;2.65;49.61;100170.31;4839695;29;8875;-78
2024/01/26 05:37:38;;;;;;;;;9.80;9.80;;;;;2.93;49.59;100171.78;4791654;29;8937;-79
2024/01/26 05:40:08;;;;;;;;;16.00;14.60;;;;;2.97;48.70;100168.38;4839210;29;8938;-77
2024/01/26 05:42:37;;;;;;;;;12.40;12.40;;;;;3.10;49.08;100169.50;4847685;29;8968;-77
2024/01/26 05:45:09;;;;;;;;;16.00;14.20;;;;;3.11;49.69;100166.03;4857665;29;8899;-78
2024/01/26 05:47:38;;;;;;;;;15.40;15.40;;;;;3.14;49.61;100176.50;4842921;29;8923;-80
2024/01/26 05:50:08;;;;;;;;;32.80;29.60;;;;;2.91;49.87;100176.06;4852833;29;8891;-79
2024/01/26 05:52:37;;;;;;;;;32.75;28.50;;;;;2.87;50.13;100176.84;4839366;29;8883;-80
2024/01/26 05:55:07;;;;;;;;;28.40;25.80;;;;;3.22;48.99;100179.25;4836558;29;8868;-79
2024/01/26 05:57:36;;;;;;;;;18.80;15.40;;;;;2.45;50.14;100170.78;4838438;29;8887;-80
2024/01/26 06:00:07;;;;;;;;;17.20;17.20;;;;;2.70;49.62;100177.34;4837430;29;8879;-79
2024/01/26 06:02:37;;;;;;;;;21.80;19.20;;;;;2.57;50.37;100173.63;4820429;29;8878;-79
2024/01/26 06:05:06;;;;;;;;;20.20;17.20;;;;;2.67;50.79;100166.03;4834504;29;8975;-81
2024/01/26 06:07:35;;;;;;;;;18.80;18.60;;;;;2.46;50.58;100188.06;4838192;29;8891;-78
2024/01/26 06:10:05;;;;;;;;;17.00;17.00;;;;;1.85;52.21;100190.09;4852619;29;9718;-79
2024/01/26 06:12:34;;;;;;;;;16.80;16.80;;;;;1.70;53.47;100200.97;4838567;29;8982;-78
2024/01/26 06:15:03;;;;;;;;;17.80;15.20;;;;;2.21;52.21;100204.81;4853543;29;9677;-79
2024/01/26 06:17:34;;;;;;;;;17.20;15.40;;;;;1.93;53.23;100214.50;4852957;29;8900;-80
2024/01/26 06:20:05;;;;;;;;;17.80;17.80;;;;;1.87;53.22;100213.47;4837578;29;8903;-78
2024/01/26 06:22:34;;;;;;;;;19.80;19.80;;;;;2.21;52.35;100218.63;4841279;29;8906;-78
2024/01/26 06:25:03;;;;;;;;;25.40;22.40;;;;;2.03;52.13;100215.59;4852790;29;8885;-79
2024/01/26 06:27:32;;;;;;;;;17.00;14.00;;;;;2.37;51.39;100219.91;4853834;29;8892;-79
2024/01/26 06:30:01;;;;;;;;;16.80;13.20;;;;;2.46;51.06;100215.75;4856317;29;8895;-79
2024/01/26 06:32:31;;;;;;;;;18.00;17.20;;;;;2.48;51.71;100219.25;4838061;29;8911;-79
2024/01/26 06:35:01;;;;;;;;;21.20;20.20;;;;;2.39;51.48;100225.09;4790077;29;8914;-79
2024/01/26 06:37:30;;;;;;;;;21.60;20.40;;;;;2.27;51.90;100232.59;4838584;29;8933;-78
2024/01/26 06:39:59;;;;;;;;;23.20;20.80;;;;;2.64;51.04;100239.53;4843695;29;8960;-77
2024/01/26 06:42:29;;;;;;;;;19.40;18.40;;;;;2.57;51.07;100233.31;4843939;29;8910;-78
2024/01/26 06:44:58;;;;;;;;;22.60;19.40;;;;;2.10;52.35;100246.03;4838150;29;8868;-79
2024/01/26 06:47:27;;;;;;;;;15.40;14.00;;;;;2.54;51.37;100238.44;4856183;29;8865;-81
2024/01/26 06:49:56;;;;;;;;;20.80;18.00;;;;;2.87;50.15;100229.66;4842356;29;9607;-80
2024/01/26 06:52:27;;;;;;;;;20.40;17.60;;;;;2.41;51.21;100245.06;4837951;29;8955;-78
2024/01/26 06:54:56;;;;;;;;;22.80;20.40;;;;;2.54;50.38;100243.63;4858552;29;8881;-78
2024/01/26 06:57:26;;;;;;;;;15.60;13.60;;;;;2.05;52.72;100246.75;4853674;29;8904;-79
2024/01/26 06:59:54;;;;;;;;;22.60;18.60;;;;;2.42;52.18;100246.81;4854960;29;8885;-79
2024/01/26 07:02:24;;;;;;;;;18.20;14.80;;;;;2.50;51.02;100248.72;4852281;29;8869;-77
2024/01/26 07:04:53;;;;;;;;;11.80;9.80;;;;;2.71;50.99;100254.41;4836142;29;8884;-80
2024/01/26 07:07:22;;;;;;;;;17.40;17.40;;;;;2.66;51.36;100255.16;4851609;29;8899;-79
2024/01/26 07:09:52;;;;;;;;;17.00;14.80;;;;;2.89;50.41;100248.72;4840051;29;8898;-78
2024/01/26 07:12:21;;;;;;;;;16.80;13.20;;;;;2.84;49.88;100265.06;4841837;29;8906;-78
2024/01/26 07:14:50;;;;;;;;;20.20;16.40;;;;;2.86;49.69;100248.66;4830309;29;8890;-77
2024/01/26 07:17:19;;;;;;;;;15.40;15.40;;;;;2.68;50.43;100261.25;4850480;29;8880;-79
2024/01/26 07:19:48;;;;;;;;;15.20;14.40;;;;;2.96;49.95;100248.03;4838952;29;8987;-79
2024/01/26 07:22:17;;;;;;;;;11.60;11.20;;;;;2.83;49.47;100259.00;4855223;29;8895;-79
2024/01/26 07:24:46;;;;;;;;;19.20;16.80;;;;;2.60;50.68;100267.13;4853191;29;8872;-78
2024/01/26 07:27:17;;;;;;;;;17.40;16.60;;;;;2.33;50.95;100258.69;4849567;29;8876;-79
2024/01/26 07:29:47;;;;;;;;;19.40;13.20;;;;;2.32;52.08;100263.00;4847466;29;8873;-77
2024/01/26 07:32:16;;;;;;;;;16.00;13.00;;;;;2.16;52.26;100259.16;4859994;29;8872;-80
2024/01/26 07:34:45;;;;;;;;;17.20;14.60;;;;;2.00;53.29;100270.88;4845763;29;9674;-78
2024/01/26 07:37:14;;;;;;;;;16.60;9.80;;;;;2.36;52.21;100270.03;4856669;29;8875;-79
2024/01/26 07:39:43;;;;;;;;;20.20;17.60;;;;;2.77;50.36;100275.31;4846656;29;8899;-77
2024/01/26 07:42:12;;;;;;;;;22.40;20.40;;;;;3.04;50.61;100281.09;4840853;29;8996;-78
2024/01/26 07:44:42;;;;;;;;;16.20;16.20;;;;;3.35;49.86;100279.97;4823344;29;8903;-78
2024/01/26 07:47:11;;;;;;;;;13.20;13.00;;;;;3.50;48.92;100275.13;4854946;29;8956;-79
2024/01/26 07:49:40;;;;;;;;;19.80;17.80;;;;;3.79;48.18;100282.63;4852337;29;8896;-80
2024/01/26 07:52:12;;;;;;;;;17.40;14.80;;;;;3.23;49.17;100275.41;4838439;29;8868;-78
2024/01/26 07:54:41;;;;;;;;;15.60;15.60;;;;;3.53;49.76;100277.78;4838742;29;8994;-78
2024/01/26 07:57:10;;;;;;;;;17.00;15.20;;;;;3.45;49.54;100281.97;4840306;29;8954;-77
2024/01/26 07:59:39;;;;;;;;;20.00;19.20;;;;;3.56;49.22;100271.75;4839125;29;9974;-77
2024/01/26 08:02:10;;;;;;;;;13.00;13.00;;;;;3.78;48.33;100280.84;4855562;29;8926;-78
2024/01/26 08:04:39;;;;;;;;;17.00;14.80;;;;;3.78;48.20;100279.13;4822580;29;8899;-77
2024/01/26 08:07:08;;;;;;;;;18.20;17.00;;;;;3.64;48.70;100277.09;4835980;29;8874;-78
2024/01/26 08:09:37;;;;;;;;;16.80;14.60;;;;;3.65;48.79;100282.34;4822196;29;8917;-77
2024/01/26 08:12:07;;;;;;;;;17.00;15.40;;;;;3.27;49.06;100286.75;4847334;29;8889;-77
2024/01/26 08:14:39;;;;;;;;;16.60;14.20;;;;;3.53;48.56;100289.91;4842391;29;9624;-77
2024/01/26 08:17:10;;;;;;;;;17.60;15.40;;;;;3.65;49.05;100276.28;4858290;29;8864;-76
2024/01/26 08:19:39;;;;;;;;;17.40;14.00;;;;;3.47;49.47;100294.97;4859931;29;8893;-78
2024/01/26 08:22:08;;;;;;;;;17.40;16.80;;;;;3.15;50.43;100288.25;4856460;29;8880;-77
2024/01/26 08:24:37;;;;;;;;;14.60;13.60;;;;;3.44;49.98;100295.78;4822364;29;9030;-77
2024/01/26 08:27:07;;;;;;;;;18.80;17.60;;;;;3.53;49.70;100296.00;4856061;29;8871;-79
2024/01/26 08:29:35;;;;;;;;;15.40;14.40;;;;;3.01;50.29;100297.47;4831942;29;8902;-78
2024/01/26 08:32:05;;;;;;;;;16.00;15.60;;;;;2.97;51.71;100295.63;4857584;29;8878;-77
2024/01/26 08:34:36;;;;;;;;;17.00;15.60;;;;;3.78;50.79;100293.84;4842414;29;8875;-77
2024/01/26 08:37:06;;;;;;;;;19.60;14.80;;;;;3.16;50.56;100294.31;4848614;29;8884;-78
2024/01/26 08:39:35;;;;;;;;;13.20;12.60;;;;;3.47;49.78;100295.88;4839124;29;8880;-76
2024/01/26 08:42:05;;;;;;;;;14.00;12.00;;;;;3.45;49.68;100297.56;4839912;29;8883;-77
2024/01/26 08:44:34;;;;;;;;;16.40;15.60;;;;;3.97;49.40;100290.72;4836833;29;8981;-78
2024/01/26 08:47:03;;;;;;;;;26.00;20.80;;;;;3.76;48.66;100300.75;4821456;29;8912;-78
2024/01/26 08:49:32;;;;;;;;;15.00;15.00;;;;;3.62;48.90;100291.81;4836006;29;8924;-78
2024/01/26 08:52:04;;;;;;;;;14.40;13.60;;;;;3.28;49.53;100307.59;4821960;29;8905;-78
2024/01/26 08:54:33;;;;;;;;;19.60;18.40;;;;;2.71;50.53;100302.84;4821914;29;8897;-78
2024/01/26 08:57:02;;;;;;;;;14.20;14.00;;;;;3.12;50.75;100316.75;4822482;29;8985;-77
2024/01/26 08:59:31;;;;;;;;;21.20;17.20;;;;;2.79;50.84;100325.53;4828161;29;8939;-78
2024/01/26 09:02:01;;;;;;;;;17.60;14.60;;;;;2.69;51.98;100309.72;4838394;29;8884;-80
2024/01/26 09:04:29;;;;;;;;;17.40;14.40;;;;;2.41;52.59;100312.53;4851353;29;9628;-79
2024/01/26 09:06:59;;;;;;;;;17.60;17.60;;;;;2.57;52.43;100312.91;4836604;29;8904;-79
2024/01/26 09:09:40;;;;;;;;;22.00;18.40;;;;;2.35;53.92;100322.78;4822160;29;8905;-79
2024/01/26 09:12:09;;;;;;;;;6.80;6.40;;;;;2.68;53.61;100316.63;4851474;29;8900;-79
2024/01/26 09:14:38;;;;;;;;;15.80;14.40;;;;;2.65;53.54;100305.28;4805943;29;9646;-78
2024/01/26 09:17:08;;;;;;;;;20.20;17.80;;;;;2.43;53.35;100309.97;4835996;29;8897;-77
2024/01/26 09:19:37;;;;;;;;;17.60;16.60;;;;;2.90;52.65;100304.13;4838135;29;8941;-78
2024/01/26 09:22:07;;;;;;;;;22.20;18.00;;;;;2.81;52.99;100323.00;4821337;29;8893;-78
2024/01/26 09:24:36;;;;;;;;;23.40;20.80;;;;;2.99;52.96;100318.19;4832574;29;9005;-78
2024/01/26 09:27:06;;;;;;;;;25.00;21.40;;;;;3.10;53.24;100326.22;4839104;29;8914;-79
2024/01/26 09:29:35;;;;;;;;;31.60;29.80;;;;;2.96;53.41;100319.88;4808895;29;9060;-78
2024/01/26 09:32:05;;;;;;;;;32.60;30.80;;;;;3.20;53.08;100317.81;4841874;29;8877;-78
2024/01/26 09:34:33;;;;;;;;;30.00;26.40;;;;;3.36;52.61;100312.94;4823434;29;9645;-77
2024/01/26 09:37:03;;;;;;;;;12.20;9.20;;;;;3.49;52.78;100314.09;4854935;29;9083;-77
2024/01/26 09:39:32;;;;;;;;;23.20;18.80;;;;;3.28;52.94;100317.97;4839920;29;8867;-78
2024/01/26 09:42:02;;;;;;;;;20.00;18.00;;;;;3.71;52.13;100325.78;4830369;29;9612;-77
2024/01/26 09:44:32;;;;;;;;;20.60;18.00;;;;;3.55;51.72;100316.81;4854125;29;8898;-80
2024/01/26 09:47:03;;;;;;;;;14.80;13.20;;;;;3.13;53.15;100321.13;4839139;29;8928;-78
2024/01/26 09:49:32;;;;;;;;;12.40;10.80;;;;;3.54;52.68;100315.94;4841913;29;8889;-78
2024/01/26 09:52:01;;;;;;;;;9.00;9.00;;;;;3.26;52.23;100308.38;4854953;29;8902;-78
2024/01/26 09:54:31;;;;;;;;;25.40;21.40;;;;;3.54;52.74;100312.44;4838840;29;9041;-78
2024/01/26 09:57:00;;;;;;;;;17.00;15.60;;;;;3.37;53.02;100297.38;4839689;29;8896;-77
2024/01/26 09:59:28;;;;;;;;;13.20;10.60;;;;;3.53;52.05;100301.19;4802551;29;9690;-79
2024/01/26 10:02:00;;;;;;;;;12.00;11.40;;;;;3.89;51.67;100292.34;4839167;29;9053;-79
2024/01/26 10:04:29;;;;;;;;;9.80;9.80;;;;;3.84;50.61;100299.16;4827894;29;9023;-79
2024/01/26 10:06:59;;;;;;;;;10.20;9.60;;;;;3.82;51.11;100293.06;4847618;29;8914;-79
2024/01/26 10:09:29;;;;;;;;;20.60;17.80;;;;;4.34;50.00;100290.50;4838116;29;8914;-78
2024/01/26 10:11:58;;;;;;;;;19.00;13.00;;;;;4.26;50.23;100281.69;4852374;29;8883;-77
2024/01/26 10:14:27;;;;;;;;;9.40;8.60;;;;;3.82;50.00;100294.78;4821409;29;8876;-78
2024/01/26 10:16:57;;;;;;;;;12.60;10.80;;;;;4.17;49.25;100279.81;4836111;29;8879;-77
2024/01/26 10:19:28;;;;;;;;;17.80;13.80;;;;;3.86;49.06;100287.06;4792137;29;8932;-78
2024/01/26 10:21:59;;;;;;;;;6.80;6.40;;;;;3.64;50.26;100282.31;4831859;29;8891;-79
2024/01/26 10:24:29;;;;;;;;;14.40;10.80;;;;;3.82;50.30;100282.66;4836850;29;8875;-78
2024/01/26 10:26:58;;;;;;;;;8.40;7.60;;;;;3.74;49.60;100290.31;4837525;29;9083;-78
2024/01/26 10:29:27;;;;;;;;;13.40;12.00;;;;;3.67;49.93;100293.66;4838276;29;8907;-77
2024/01/26 10:31:57;;;;;;;;;12.20;11.60;;;;;4.01;49.15;100296.00;4803994;29;8888;-79
2024/01/26 10:34:30;;;;;;;;;11.40;10.60;;;;;3.93;49.35;100285.47;4822024;29;8878;-79
2024/01/26 10:37:05;;;;;;;;;14.80;11.40;;;;;3.78;49.59;100292.13;4822410;29;9650;-78
2024/01/26 10:39:38;;;;;;;;;8.60;8.60;;;;;3.91;49.57;100282.84;4827434;29;8895;-79
2024/01/26 10:42:09;;;;;;;;;16.00;12.80;;;;;4.21;49.01;100289.44;4792290;29;9664;-78
2024/01/26 10:44:40;;;;;;;;;19.00;13.80;;;;;4.11;48.59;100282.28;4823654;29;8944;-79
2024/01/26 10:47:10;;;;;;;;;12.60;10.60;;;;;4.09;48.83;100290.09;4833611;29;8876;-79
2024/01/26 10:49:42;;;;;;;;;10.40;10.40;;;;;4.32;47.93;100279.22;4838223;29;8917;-78
2024/01/26 10:52:17;;;;;;;;;14.60;14.00;;;;;4.56;48.17;100265.69;4851160;29;8903;-81
2024/01/26 10:54:49;;;;;;;;;11.20;9.20;;;;;4.51;48.13;100272.56;4840156;29;8902;-78
2024/01/26 10:57:20;;;;;;;;;12.20;11.40;;;;;4.48;47.88;100277.72;4846245;29;8905;-78
2024/01/26 10:59:50;;;;;;;;;12.60;9.80;;;;;4.17;48.33;100259.00;4835823;29;8907;-78
2024/01/26 11:02:27;;;;;;;;;6.80;5.60;;;;;4.21;49.33;100262.53;4819556;29;8967;-78
2024/01/26 11:04:58;;;;;;;;;14.00;13.00;;;;;4.66;48.08;100264.97;4826237;29;9003;-78
2024/01/26 11:07:27;;;;;;;;;9.40;7.00;;;;;4.26;49.10;100266.06;4837682;29;8871;-78
2024/01/26 11:10:01;;;;;;;;;12.00;12.00;;;;;4.20;48.73;100252.97;4837062;29;9014;-80
2024/01/26 11:12:32;;;;;;;;;11.80;10.80;;;;;4.40;49.25;100246.34;4836407;29;9034;-79
2024/01/26 11:15:09;;;;;;;;;16.40;14.60;;;;;4.84;47.97;100237.44;4838118;29;8962;-79
2024/01/26 11:17:45;;;;;;;;;10.00;7.20;;;;;4.88;47.81;100227.06;4829714;29;8974;-77
2024/01/26 11:20:25;;;;;;;;;8.00;7.00;;;;;4.78;48.07;100234.75;4818316;29;8896;-78
2024/01/26 11:23:01;;;;;;;;;7.20;6.40;;;;;4.78;48.25;100232.16;4805035;29;8889;-79
2024/01/26 11:25:35;;;;;;;;;10.40;9.40;;;;;4.94;47.26;100236.69;4819270;29;8973;-80
2024/01/26 11:28:06;;;;;;;;;4.60;4.60;;;;;4.92;44.95;100257.53;4836258;29;8896;-77
2024/01/26 11:30:35;;;;;;;;;6.40;6.40;;;;;4.93;44.59;100248.84;4835496;29;8913;-79
2024/01/26 11:33:16;;;;;;;;;11.20;7.60;;;;;5.01;44.31;100241.13;4829723;29;8868;-78
2024/01/26 11:35:48;;;;;;;;;8.20;7.80;;;;;5.09;44.05;100228.19;4819306;29;9651;-77
2024/01/26 11:38:18;;;;;;;;;14.20;12.40;;;;;5.06;44.34;100233.41;4834527;29;8900;-78
2024/01/26 11:40:47;;;;;;;;;20.20;17.60;;;;;5.05;44.51;100227.28;4834349;29;8950;-78